Neeley, Idaho
Current Conditions -  °F | °C
As of 9:53 PM on Sunday 21 Dec 2014 (Local Time) from KPIH Reporting Station
Overcast Overcast  
Wind Chill: 25°   Ceiling: 1300
Heat Index: 36°   Visibility: 10mi
Dew Point: 35°   Wind: 20mph
Humidity: 97%   Direction: 240°WSW
Pressure: 29.98"   Gusts: NA
Location:  42.8287°N, 113.023°W
Report Text: KPIH 220453Z 24017KT 10SM OVC013 02/02 A2998 RMK AO2 SLP155 T00220017
Loading
Personal Weather Stations






























Interactive Weather Map New forecast layout! Learn more

10-Day Weather Forecast

Advertisements
Track Severe Weather on mobile